sensor_id;sensor_type;location;lat;lon;timestamp;pressure;altitude;pressure_sealevel;temperature;humidity
50364;BME280;36272;59.400;17.982;2023-02-22T00:02:07;101608.88;;;0.02;82.22
50364;BME280;36272;59.400;17.982;2023-02-22T00:07:14;101619.28;;;0.04;81.99
50364;BME280;36272;59.400;17.982;2023-02-22T00:12:15;101631.03;;;-0.01;81.75
50364;BME280;36272;59.400;17.982;2023-02-22T00:17:17;101623.28;;;-0.02;81.92
50364;BME280;36272;59.400;17.982;2023-02-22T00:22:20;101629.63;;;-0.05;81.54
50364;BME280;36272;59.400;17.982;2023-02-22T00:27:22;101628.34;;;-0.10;81.48
50364;BME280;36272;59.400;17.982;2023-02-22T00:32:24;101635.28;;;-0.09;81.46
50364;BME280;36272;59.400;17.982;2023-02-22T00:37:26;101628.91;;;-0.07;81.33
50364;BME280;36272;59.400;17.982;2023-02-22T00:42:32;101635.97;;;-0.07;81.29
50364;BME280;36272;59.400;17.982;2023-02-22T00:47:33;101636.94;;;-0.08;80.90
50364;BME280;36272;59.400;17.982;2023-02-22T00:52:36;101632.91;;;-0.12;80.84
50364;BME280;36272;59.400;17.982;2023-02-22T00:57:38;101638.16;;;-0.12;81.09
50364;BME280;36272;59.400;17.982;2023-02-22T01:02:41;101648.69;;;-0.12;80.93
50364;BME280;36272;59.400;17.982;2023-02-22T01:07:44;101649.41;;;-0.10;80.65
50364;BME280;36272;59.400;17.982;2023-02-22T01:12:47;101654.78;;;-0.12;80.14
50364;BME280;36272;59.400;17.982;2023-02-22T01:17:50;101656.94;;;-0.17;80.53
50364;BME280;36272;59.400;17.982;2023-02-22T01:22:55;101660.28;;;-0.15;80.77
50364;BME280;36272;59.400;17.982;2023-02-22T01:27:59;101665.78;;;-0.18;80.45
50364;BME280;36272;59.400;17.982;2023-02-22T01:33:03;101667.03;;;-0.22;80.34
50364;BME280;36272;59.400;17.982;2023-02-22T01:38:05;101680.88;;;-0.20;80.38
50364;BME280;36272;59.400;17.982;2023-02-22T01:43:27;101673.81;;;-0.20;80.26
50364;BME280;36272;59.400;17.982;2023-02-22T01:58:46;101684.34;;;-0.20;80.47
50364;BME280;36272;59.400;17.982;2023-02-22T02:03:50;101693.34;;;-0.22;80.12
50364;BME280;36272;59.400;17.982;2023-02-22T02:09:02;101687.63;;;-0.27;80.09
50364;BME280;36272;59.400;17.982;2023-02-22T02:14:06;101687.72;;;-0.29;80.21
50364;BME280;36272;59.400;17.982;2023-02-22T02:19:33;101698.16;;;-0.27;79.99
50364;BME280;36272;59.400;17.982;2023-02-22T02:36:15;101699.41;;;-0.22;80.16
50364;BME280;36272;59.400;17.982;2023-02-22T02:41:42;101695.25;;;-0.24;79.99
50364;BME280;36272;59.400;17.982;2023-02-22T02:46:50;101699.34;;;-0.32;79.99
50364;BME280;36272;59.400;17.982;2023-02-22T02:51:57;101704.88;;;-0.35;79.96
50364;BME280;36272;59.400;17.982;2023-02-22T02:57:01;101704.41;;;-0.40;79.56
50364;BME280;36272;59.400;17.982;2023-02-22T03:12:25;101713.00;;;-0.38;79.82
50364;BME280;36272;59.400;17.982;2023-02-22T03:17:44;101717.66;;;-0.41;79.89
50364;BME280;36272;59.400;17.982;2023-02-22T03:22:54;101731.19;;;-0.46;79.71
50364;BME280;36272;59.400;17.982;2023-02-22T03:28:04;101734.19;;;-0.51;79.68
50364;BME280;36272;59.400;17.982;2023-02-22T03:33:14;101732.53;;;-0.52;79.46
50364;BME280;36272;59.400;17.982;2023-02-22T03:38:21;101744.09;;;-0.54;80.05
50364;BME280;36272;59.400;17.982;2023-02-22T03:43:42;101754.84;;;-0.46;79.98
50364;BME280;36272;59.400;17.982;2023-02-22T03:54:06;101748.63;;;-0.45;79.98
50364;BME280;36272;59.400;17.982;2023-02-22T03:59:09;101761.06;;;-0.47;79.90
50364;BME280;36272;59.400;17.982;2023-02-22T04:04:11;101763.84;;;-0.49;79.90
50364;BME280;36272;59.400;17.982;2023-02-22T04:09:13;101763.47;;;-0.55;79.75
50364;BME280;36272;59.400;17.982;2023-02-22T04:14:15;101770.41;;;-0.54;80.14
50364;BME280;36272;59.400;17.982;2023-02-22T04:19:17;101772.06;;;-0.53;79.79
50364;BME280;36272;59.400;17.982;2023-02-22T04:24:18;101770.28;;;-0.53;79.98
50364;BME280;36272;59.400;17.982;2023-02-22T04:29:20;101776.03;;;-0.48;79.94
50364;BME280;36272;59.400;17.982;2023-02-22T04:34:22;101783.78;;;-0.46;79.74
50364;BME280;36272;59.400;17.982;2023-02-22T04:39:23;101789.97;;;-0.47;79.67
50364;BME280;36272;59.400;17.982;2023-02-22T04:44:28;101792.75;;;-0.49;79.83
50364;BME280;36272;59.400;17.982;2023-02-22T04:49:30;101797.16;;;-0.49;79.73
50364;BME280;36272;59.400;17.982;2023-02-22T04:54:32;101805.03;;;-0.49;80.01
50364;BME280;36272;59.400;17.982;2023-02-22T04:59:33;101800.50;;;-0.47;79.95
50364;BME280;36272;59.400;17.982;2023-02-22T05:04:39;101814.59;;;-0.48;79.83
50364;BME280;36272;59.400;17.982;2023-02-22T05:09:40;101816.25;;;-0.36;80.32
50364;BME280;36272;59.400;17.982;2023-02-22T05:14:42;101825.13;;;-0.48;80.08
50364;BME280;36272;59.400;17.982;2023-02-22T05:19:44;101825.50;;;-0.53;79.98
50364;BME280;36272;59.400;17.982;2023-02-22T05:24:48;101829.19;;;-0.55;80.06
50364;BME280;36272;59.400;17.982;2023-02-22T05:29:49;101820.81;;;-0.61;80.06
50364;BME280;36272;59.400;17.982;2023-02-22T05:34:51;101834.22;;;-0.64;80.01
50364;BME280;36272;59.400;17.982;2023-02-22T05:39:52;101847.34;;;-0.64;80.28
50364;BME280;36272;59.400;17.982;2023-02-22T05:44:56;101846.38;;;-0.63;80.09
50364;BME280;36272;59.400;17.982;2023-02-22T05:49:57;101850.59;;;-0.60;79.96
50364;BME280;36272;59.400;17.982;2023-02-22T05:54:59;101852.84;;;-0.55;80.06
50364;BME280;36272;59.400;17.982;2023-02-22T06:00:03;101847.59;;;-0.55;80.08
50364;BME280;36272;59.400;17.982;2023-02-22T06:05:05;101852.97;;;-0.57;80.07
50364;BME280;36272;59.400;17.982;2023-02-22T06:10:07;101858.34;;;-0.58;80.09
50364;BME280;36272;59.400;17.982;2023-02-22T06:15:09;101860.00;;;-0.57;80.12
50364;BME280;36272;59.400;17.982;2023-02-22T06:20:13;101859.91;;;-0.56;80.15
50364;BME280;36272;59.400;17.982;2023-02-22T06:25:18;101867.78;;;-0.56;80.18
50364;BME280;36272;59.400;17.982;2023-02-22T06:30:22;101864.06;;;-0.53;80.29
50364;BME280;36272;59.400;17.982;2023-02-22T06:35:24;101873.41;;;-0.49;80.22
50364;BME280;36272;59.400;17.982;2023-02-22T06:40:25;101872.34;;;-0.47;80.21
50364;BME280;36272;59.400;17.982;2023-02-22T06:45:30;101885.09;;;-0.42;80.19
50364;BME280;36272;59.400;17.982;2023-02-22T06:50:32;101881.53;;;-0.41;80.23
50364;BME280;36272;59.400;17.982;2023-02-22T06:55:36;101875.16;;;-0.38;80.18
50364;BME280;36272;59.400;17.982;2023-02-22T07:00:38;101879.22;;;-0.34;80.04
50364;BME280;36272;59.400;17.982;2023-02-22T07:05:39;101879.94;;;-0.32;79.95
50364;BME280;36272;59.400;17.982;2023-02-22T07:10:41;101885.81;;;-0.28;80.05
50364;BME280;36272;59.400;17.982;2023-02-22T07:15:43;101887.25;;;-0.24;80.20
50364;BME280;36272;59.400;17.982;2023-02-22T07:20:45;101886.00;;;-0.20;79.79
50364;BME280;36272;59.400;17.982;2023-02-22T07:25:47;101886.16;;;-0.22;79.72
50364;BME280;36272;59.400;17.982;2023-02-22T07:30:48;101893.31;;;-0.24;80.00
50364;BME280;36272;59.400;17.982;2023-02-22T07:35:50;101901.06;;;-0.11;80.08
50364;BME280;36272;59.400;17.982;2023-02-22T07:40:52;101908.56;;;0.05;79.72
50364;BME280;36272;59.400;17.982;2023-02-22T07:45:55;101908.56;;;0.05;79.48
50364;BME280;36272;59.400;17.982;2023-02-22T07:50:58;101908.25;;;-0.13;79.56
50364;BME280;36272;59.400;17.982;2023-02-22T07:56:01;101912.94;;;-0.28;79.64
50364;BME280;36272;59.400;17.982;2023-02-22T08:01:03;101916.41;;;-0.39;79.83
50364;BME280;36272;59.400;17.982;2023-02-22T08:06:06;101921.06;;;-0.42;79.71
50364;BME280;36272;59.400;17.982;2023-02-22T08:11:08;101922.72;;;-0.41;79.74
50364;BME280;36272;59.400;17.982;2023-02-22T08:16:09;101935.16;;;-0.43;79.31
50364;BME280;36272;59.400;17.982;2023-02-22T08:21:16;101931.00;;;-0.46;79.01
50364;BME280;36272;59.400;17.982;2023-02-22T08:26:18;101933.75;;;-0.48;78.92
50364;BME280;36272;59.400;17.982;2023-02-22T08:31:21;101939.00;;;-0.48;78.73
50364;BME280;36272;59.400;17.982;2023-02-22T08:36:22;101949.28;;;-0.44;78.76
50364;BME280;36272;59.400;17.982;2023-02-22T08:41:24;101946.88;;;-0.36;78.78
50364;BME280;36272;59.400;17.982;2023-02-22T08:46:26;101954.88;;;-0.15;78.62
50364;BME280;36272;59.400;17.982;2023-02-22T08:51:34;101953.19;;;0.07;78.01
50364;BME280;36272;59.400;17.982;2023-02-22T08:56:36;101947.84;;;0.29;77.93
50364;BME280;36272;59.400;17.982;2023-02-22T09:01:40;101936.81;;;0.47;77.28
50364;BME280;36272;59.400;17.982;2023-02-22T09:06:45;101946.66;;;0.66;77.12
50364;BME280;36272;59.400;17.982;2023-02-22T09:11:52;101948.75;;;0.84;77.10
50364;BME280;36272;59.400;17.982;2023-02-22T09:16:53;101948.34;;;0.88;76.60
50364;BME280;36272;59.400;17.982;2023-02-22T09:22:00;101948.41;;;0.98;76.54
50364;BME280;36272;59.400;17.982;2023-02-22T09:27:02;101956.41;;;1.08;76.84
50364;BME280;36272;59.400;17.982;2023-02-22T09:32:04;101959.03;;;1.08;76.89
50364;BME280;36272;59.400;17.982;2023-02-22T09:37:06;101964.31;;;1.08;76.71
50364;BME280;36272;59.400;17.982;2023-02-22T09:47:23;101965.31;;;0.96;77.49
50364;BME280;36272;59.400;17.982;2023-02-22T09:52:39;101971.34;;;0.86;77.77
50364;BME280;36272;59.400;17.982;2023-02-22T09:57:42;101969.63;;;0.76;78.22
50364;BME280;36272;59.400;17.982;2023-02-22T10:08:17;101971.09;;;0.57;78.57
50364;BME280;36272;59.400;17.982;2023-02-22T10:18:59;101965.78;;;0.47;78.87
50364;BME280;36272;59.400;17.982;2023-02-22T10:29:58;101966.72;;;0.46;79.25
50364;BME280;36272;59.400;17.982;2023-02-22T10:35:05;101966.47;;;0.49;79.09
50364;BME280;36272;59.400;17.982;2023-02-22T10:40:22;101965.25;;;0.65;79.28
50364;BME280;36272;59.400;17.982;2023-02-22T10:45:33;101961.22;;;0.82;79.16
50364;BME280;36272;59.400;17.982;2023-02-22T10:50:38;101957.72;;;1.02;78.75
50364;BME280;36272;59.400;17.982;2023-02-22T11:01:25;101959.91;;;1.18;78.42
50364;BME280;36272;59.400;17.982;2023-02-22T11:06:28;101966.84;;;1.19;78.67
50364;BME280;36272;59.400;17.982;2023-02-22T11:11:30;101963.44;;;1.29;78.97
50364;BME280;36272;59.400;17.982;2023-02-22T11:16:48;101959.81;;;1.51;79.23
50364;BME280;36272;59.400;17.982;2023-02-22T11:27:03;101965.13;;;2.02;78.54
50364;BME280;36272;59.400;17.982;2023-02-22T11:32:12;101964.19;;;2.13;77.68
50364;BME280;36272;59.400;17.982;2023-02-22T11:37:35;101962.56;;;2.31;77.89
50364;BME280;36272;59.400;17.982;2023-02-22T11:42:37;101974.53;;;2.35;78.67
50364;BME280;36272;59.400;17.982;2023-02-22T11:47:47;101971.88;;;2.35;78.62
50364;BME280;36272;59.400;17.982;2023-02-22T11:53:00;101974.38;;;2.27;78.40
50364;BME280;36272;59.400;17.982;2023-02-22T12:09:21;101974.13;;;3.84;76.95
50364;BME280;36272;59.400;17.982;2023-02-22T12:19:50;101969.69;;;3.47;77.89
50364;BME280;36272;59.400;17.982;2023-02-22T12:25:22;101965.44;;;3.26;77.07
50364;BME280;36272;59.400;17.982;2023-02-22T12:30:29;101961.69;;;3.09;77.63
50364;BME280;36272;59.400;17.982;2023-02-22T12:35:41;101961.88;;;2.98;78.26
50364;BME280;36272;59.400;17.982;2023-02-22T12:40:53;101963.13;;;2.94;79.27
50364;BME280;36272;59.400;17.982;2023-02-22T12:51:23;101958.28;;;2.70;80.35
50364;BME280;36272;59.400;17.982;2023-02-22T12:56:31;101968.16;;;2.58;80.65
50364;BME280;36272;59.400;17.982;2023-02-22T13:01:41;101955.34;;;2.43;80.21
50364;BME280;36272;59.400;17.982;2023-02-22T13:06:49;101959.78;;;2.33;80.60
50364;BME280;36272;59.400;17.982;2023-02-22T13:12:03;101968.38;;;2.25;80.88
50364;BME280;36272;59.400;17.982;2023-02-22T13:38:50;101949.47;;;2.20;82.15
50364;BME280;36272;59.400;17.982;2023-02-22T13:44:26;101942.81;;;2.26;82.36
50364;BME280;36272;59.400;17.982;2023-02-22T13:54:38;101946.28;;;2.26;82.38
50364;BME280;36272;59.400;17.982;2023-02-22T13:59:41;101948.06;;;2.26;82.57
50364;BME280;36272;59.400;17.982;2023-02-22T14:04:43;101952.25;;;2.18;82.36
50364;BME280;36272;59.400;17.982;2023-02-22T14:09:53;101931.16;;;2.18;82.40
50364;BME280;36272;59.400;17.982;2023-02-22T14:25:39;101931.34;;;1.96;81.58
50364;BME280;36272;59.400;17.982;2023-02-22T14:30:41;101940.22;;;1.85;80.25
50364;BME280;36272;59.400;17.982;2023-02-22T14:35:43;101931.59;;;1.73;79.20
50364;BME280;36272;59.400;17.982;2023-02-22T14:40:50;101919.63;;;1.69;79.22
50364;BME280;36272;59.400;17.982;2023-02-22T14:45:55;101929.56;;;1.55;78.70
50364;BME280;36272;59.400;17.982;2023-02-22T14:51:01;101930.63;;;1.43;78.63
50364;BME280;36272;59.400;17.982;2023-02-22T14:56:13;101933.94;;;1.35;78.75
50364;BME280;36272;59.400;17.982;2023-02-22T15:01:26;101929.44;;;1.26;78.31
50364;BME280;36272;59.400;17.982;2023-02-22T15:06:31;101927.75;;;1.25;78.75
50364;BME280;36272;59.400;17.982;2023-02-22T15:11:35;101926.50;;;1.19;78.83
50364;BME280;36272;59.400;17.982;2023-02-22T15:16:37;101921.53;;;1.04;77.62
50364;BME280;36272;59.400;17.982;2023-02-22T15:21:45;101923.16;;;0.96;77.64
50364;BME280;36272;59.400;17.982;2023-02-22T15:26:47;101918.16;;;0.93;78.25
50364;BME280;36272;59.400;17.982;2023-02-22T15:31:50;101910.25;;;0.93;78.31
50364;BME280;36272;59.400;17.982;2023-02-22T15:36:54;101911.47;;;0.88;77.97
50364;BME280;36272;59.400;17.982;2023-02-22T15:47:11;101912.47;;;0.76;76.79
50364;BME280;36272;59.400;17.982;2023-02-22T15:52:19;101909.53;;;0.69;77.87
50364;BME280;36272;59.400;17.982;2023-02-22T15:57:23;101908.69;;;0.69;77.77
50364;BME280;36272;59.400;17.982;2023-02-22T16:02:30;101908.63;;;0.59;76.05
50364;BME280;36272;59.400;17.982;2023-02-22T16:07:37;101905.41;;;0.55;77.10
50364;BME280;36272;59.400;17.982;2023-02-22T16:12:44;101916.19;;;0.52;76.79
50364;BME280;36272;59.400;17.982;2023-02-22T16:17:53;101915.59;;;0.49;76.79
50364;BME280;36272;59.400;17.982;2023-02-22T16:22:58;101905.31;;;0.46;75.85
50364;BME280;36272;59.400;17.982;2023-02-22T16:28:03;101911.69;;;0.43;76.53
50364;BME280;36272;59.400;17.982;2023-02-22T16:33:10;101918.75;;;0.42;76.41
50364;BME280;36272;59.400;17.982;2023-02-22T16:38:17;101913.84;;;0.38;76.33
50364;BME280;36272;59.400;17.982;2023-02-22T16:43:22;101913.38;;;0.33;75.94
50364;BME280;36272;59.400;17.982;2023-02-22T16:48:26;101920.34;;;0.34;76.43
50364;BME280;36272;59.400;17.982;2023-02-22T16:53:31;101905.75;;;0.29;75.91
50364;BME280;36272;59.400;17.982;2023-02-22T16:58:37;101916.53;;;0.26;75.59
50364;BME280;36272;59.400;17.982;2023-02-22T17:03:54;101909.59;;;0.25;75.36
50364;BME280;36272;59.400;17.982;2023-02-22T17:09:13;101912.22;;;0.25;75.05
50364;BME280;36272;59.400;17.982;2023-02-22T17:14:18;101902.41;;;0.27;75.76
50364;BME280;36272;59.400;17.982;2023-02-22T17:19:23;101905.75;;;0.29;75.62
50364;BME280;36272;59.400;17.982;2023-02-22T17:24:27;101898.81;;;0.28;75.46
50364;BME280;36272;59.400;17.982;2023-02-22T17:29:34;101896.41;;;0.25;74.25
50364;BME280;36272;59.400;17.982;2023-02-22T17:34:36;101893.22;;;0.22;75.22
50364;BME280;36272;59.400;17.982;2023-02-22T17:39:37;101898.22;;;0.25;74.85
50364;BME280;36272;59.400;17.982;2023-02-22T17:44:39;101897.38;;;0.24;75.12
50364;BME280;36272;59.400;17.982;2023-02-22T17:49:50;101892.97;;;0.25;75.02
50364;BME280;36272;59.400;17.982;2023-02-22T17:54:58;101897.13;;;0.27;75.10
50364;BME280;36272;59.400;17.982;2023-02-22T18:00:04;101885.66;;;0.28;74.57
50364;BME280;36272;59.400;17.982;2023-02-22T18:05:13;101891.06;;;0.27;74.90
50364;BME280;36272;59.400;17.982;2023-02-22T18:10:18;101883.41;;;0.24;75.13
50364;BME280;36272;59.400;17.982;2023-02-22T18:15:21;101877.44;;;0.22;75.17
50364;BME280;36272;59.400;17.982;2023-02-22T18:20:33;101863.44;;;0.21;74.59
50364;BME280;36272;59.400;17.982;2023-02-22T18:25:54;101858.19;;;0.21;75.03
50364;BME280;36272;59.400;17.982;2023-02-22T18:31:13;101852.22;;;0.19;74.61
50364;BME280;36272;59.400;17.982;2023-02-22T18:36:18;101846.09;;;0.19;75.13
50364;BME280;36272;59.400;17.982;2023-02-22T18:41:23;101841.78;;;0.18;74.71
50364;BME280;36272;59.400;17.982;2023-02-22T18:46:25;101855.19;;;0.14;74.76
50364;BME280;36272;59.400;17.982;2023-02-22T18:51:28;101837.88;;;0.12;74.78
50364;BME280;36272;59.400;17.982;2023-02-22T18:56:30;101841.22;;;0.14;74.84
50364;BME280;36272;59.400;17.982;2023-02-22T19:01:32;101828.88;;;0.14;74.69
50364;BME280;36272;59.400;17.982;2023-02-22T19:06:39;101817.28;;;0.17;74.50
50364;BME280;36272;59.400;17.982;2023-02-22T19:11:41;101820.03;;;0.16;74.69
50364;BME280;36272;59.400;17.982;2023-02-22T19:16:49;101810.47;;;0.14;74.83
50364;BME280;36272;59.400;17.982;2023-02-22T19:21:51;101814.19;;;0.12;74.73
50364;BME280;36272;59.400;17.982;2023-02-22T19:26:53;101814.06;;;0.13;74.73
50364;BME280;36272;59.400;17.982;2023-02-22T19:32:00;101803.66;;;0.12;74.88
50364;BME280;36272;59.400;17.982;2023-02-22T19:37:06;101811.66;;;0.10;74.81
50364;BME280;36272;59.400;17.982;2023-02-22T19:48:03;101795.56;;;0.04;74.92
50364;BME280;36272;59.400;17.982;2023-02-22T19:53:05;101806.81;;;0.06;74.68
50364;BME280;36272;59.400;17.982;2023-02-22T19:58:08;101798.66;;;0.09;74.67
50364;BME280;36272;59.400;17.982;2023-02-22T20:03:10;101795.63;;;0.13;74.50
50364;BME280;36272;59.400;17.982;2023-02-22T20:08:14;101786.78;;;0.14;74.12
50364;BME280;36272;59.400;17.982;2023-02-22T20:13:33;101785.09;;;0.13;74.03
50364;BME280;36272;59.400;17.982;2023-02-22T20:18:42;101779.03;;;0.13;74.46
50364;BME280;36272;59.400;17.982;2023-02-22T20:23:46;101780.69;;;0.14;73.72
50364;BME280;36272;59.400;17.982;2023-02-22T20:28:50;101774.47;;;0.15;73.99
50364;BME280;36272;59.400;17.982;2023-02-22T20:33:53;101763.09;;;0.14;73.93
50364;BME280;36272;59.400;17.982;2023-02-22T20:38:59;101762.97;;;0.16;73.85
50364;BME280;36272;59.400;17.982;2023-02-22T20:44:02;101764.66;;;0.17;73.46
50364;BME280;36272;59.400;17.982;2023-02-22T20:49:09;101759.13;;;0.20;73.76
50364;BME280;36272;59.400;17.982;2023-02-22T20:54:15;101749.88;;;0.26;73.91
50364;BME280;36272;59.400;17.982;2023-02-22T20:59:21;101746.41;;;0.25;73.53
50364;BME280;36272;59.400;17.982;2023-02-22T21:04:27;101746.41;;;0.25;73.47
50364;BME280;36272;59.400;17.982;2023-02-22T21:09:33;101745.19;;;0.29;73.44
50364;BME280;36272;59.400;17.982;2023-02-22T21:14:37;101745.31;;;0.28;73.68
50364;BME280;36272;59.400;17.982;2023-02-22T21:19:47;101734.53;;;0.31;73.29
50364;BME280;36272;59.400;17.982;2023-02-22T21:25:09;101729.84;;;0.35;73.50
50364;BME280;36272;59.400;17.982;2023-02-22T21:30:43;101731.66;;;0.34;73.66
50364;BME280;36272;59.400;17.982;2023-02-22T21:35:49;101726.13;;;0.37;73.03
50364;BME280;36272;59.400;17.982;2023-02-22T21:40:59;101725.97;;;0.39;73.61
50364;BME280;36272;59.400;17.982;2023-02-22T21:46:11;101717.97;;;0.40;73.77
50364;BME280;36272;59.400;17.982;2023-02-22T21:51:24;101712.56;;;0.42;73.54
50364;BME280;36272;59.400;17.982;2023-02-22T21:56:28;101711.59;;;0.43;73.39
50364;BME280;36272;59.400;17.982;2023-02-22T22:01:33;101712.44;;;0.43;73.55
50364;BME280;36272;59.400;17.982;2023-02-22T22:06:35;101714.78;;;0.47;73.48
50364;BME280;36272;59.400;17.982;2023-02-22T22:11:37;101712.16;;;0.47;73.33
50364;BME280;36272;59.400;17.982;2023-02-22T22:16:38;101703.28;;;0.48;72.84
50364;BME280;36272;59.400;17.982;2023-02-22T22:21:41;101698.03;;;0.48;73.64
50364;BME280;36272;59.400;17.982;2023-02-22T22:26:43;101694.31;;;0.50;73.56
50364;BME280;36272;59.400;17.982;2023-02-22T22:31:44;101681.16;;;0.50;73.28
50364;BME280;36272;59.400;17.982;2023-02-22T22:36:46;101680.03;;;0.53;73.67
50364;BME280;36272;59.400;17.982;2023-02-22T22:41:48;101668.69;;;0.52;73.29
50364;BME280;36272;59.400;17.982;2023-02-22T22:46:50;101669.50;;;0.53;72.89
50364;BME280;36272;59.400;17.982;2023-02-22T22:51:55;101645.44;;;0.57;73.59
50364;BME280;36272;59.400;17.982;2023-02-22T22:56:56;101635.19;;;0.64;73.57
50364;BME280;36272;59.400;17.982;2023-02-22T23:01:58;101641.28;;;0.65;73.36
50364;BME280;36272;59.400;17.982;2023-02-22T23:07:03;101631.44;;;0.67;73.38
50364;BME280;36272;59.400;17.982;2023-02-22T23:12:07;101623.53;;;0.67;73.44
50364;BME280;36272;59.400;17.982;2023-02-22T23:17:18;101619.81;;;0.69;73.79
50364;BME280;36272;59.400;17.982;2023-02-22T23:22:31;101610.78;;;0.72;73.26
50364;BME280;36272;59.400;17.982;2023-02-22T23:27:38;101601.94;;;0.73;73.53
50364;BME280;36272;59.400;17.982;2023-02-22T23:32:41;101588.63;;;0.74;73.45
50364;BME280;36272;59.400;17.982;2023-02-22T23:37:43;101592.78;;;0.77;73.59
50364;BME280;36272;59.400;17.982;2023-02-22T23:42:47;101596.28;;;0.78;73.32
50364;BME280;36272;59.400;17.982;2023-02-22T23:47:56;101581.16;;;0.80;73.60
50364;BME280;36272;59.400;17.982;2023-02-22T23:53:01;101581.97;;;0.80;73.94
50364;BME280;36272;59.400;17.982;2023-02-22T23:58:04;101568.69;;;0.82;73.56
